Latest Weather Observations for Hobart

IDT60801

Issued at 5:31 am EDT Friday 6 March 2015 (issued every 30 minutes, with the page automatically refreshed every 10 minutes)

About weather observations | Map of weather stations | Latest weather observations for TAS | Other Formats
Station Details ID: 094029 Name: HOBART (ELLERSLIE ROAD) Lat: -42.89 Lon: 147.33 Height: 50.5 m
Data from the previous 72 hours. | See also: Recent months at Hobart
Date/Time
EDT
Temp
°C
App
Temp
°C
Dew
Point
Rel
Hum
%
Delta-T
°C
Wind Press
QNH
hPa
Press
MSL
hPa
Rain
since 9 am
mm
Dir
 
Spd
km/h
Gust
km/h
Spd
kts
Gust
kts
06/05:30am 12.3 5.4 6.5 67 2.8 SSW 32 50 17 27 994.4 994.3 0.2
06/05:01am 13.0 6.1 6.4 64 3.2 SW 32 54 17 29 993.5 993.4 0.2
06/05:00am 13.1 6.1 6.2 63 3.3 SW 32 59 17 32 993.6 993.5 0.2
06/04:54am 13.4 6.5 6.4 62 3.4 SW 32 59 17 32 993.8 993.7 0.2
06/04:51am 13.5 7.8 6.5 62 3.4 SSW 26 59 14 32 993.7 993.6 0.2
06/04:30am 13.6 8.6 8.0 69 2.8 SSW 24 37 13 20 993.3 993.2 0.2
06/04:00am 13.5 8.1 9.4 76 2.1 SSW 28 50 15 27 992.4 992.3 0.2
06/03:32am 15.7 9.6 6.6 54 4.5 SW 28 54 15 29 991.8 991.7 0.0
06/03:30am 15.8 10.5 6.7 54 4.5 WSW 24 52 13 28 991.8 991.7 0.0
06/03:23am 16.2 8.3 6.0 51 4.9 WSW 37 93 20 50 991.8 991.7 0.0
06/03:19am 16.6 8.1 5.2 47 5.5 WSW 39 93 21 50 991.6 991.5 0.0
06/03:01am 16.6 9.5 5.5 48 5.3 W 32 54 17 29 991.3 991.2 0.0
06/03:00am 16.6 9.4 5.2 47 5.5 WSW 32 65 17 35 991.2 991.1 0.0
06/02:37am 16.6 10.2 5.2 47 5.5 WSW 28 80 15 43 991.3 991.2 0.0
06/02:30am 16.1 10.6 6.1 51 4.9 WSW 24 56 13 30 991.7 991.6 0.0
06/02:00am 16.4 8.6 5.0 47 5.5 W 35 69 19 37 991.5 991.4 0.0
06/01:43am 16.2 9.3 4.7 46 5.4 WNW 30 70 16 38 991.3 991.2 0.0
06/01:37am 15.8 8.6 5.2 49 5.0 WNW 32 59 17 32 991.2 991.1 0.0
06/01:32am 16.0 8.8 4.9 47 5.3 W 32 72 17 39 991.0 990.9 0.0
06/01:30am 16.1 8.7 4.8 47 5.3 W 33 72 18 39 991.7 991.6 0.0
06/01:28am 16.1 9.2 4.8 47 5.3 W 30 72 16 39 991.5 991.4 0.0
06/01:08am 15.4 10.6 5.4 51 4.8 WNW 20 57 11 31 991.3 991.2 0.0
06/01:00am 15.3 10.1 5.3 51 4.8 NW 22 44 12 24 991.8 991.7 0.0
06/12:53am 15.3 8.2 5.3 51 4.8 WNW 32 63 17 34 991.5 991.4 0.0
06/12:48am 15.5 8.1 4.8 49 5.0 WNW 33 63 18 34 991.6 991.5 0.0
06/12:32am 14.8 9.5 5.2 52 4.6 NW 22 72 12 39 992.0 991.9 0.0
06/12:30am 14.9 10.0 5.0 51 4.7 NW 20 52 11 28 992.1 992.0 0.0
06/12:00am 14.7 7.9 5.0 52 4.6 NW 30 59 16 32 992.6 992.5 0.0
 
Date/Time
EDT
Temp
°C
App
Temp
°C
Dew
Point
Rel
Hum
%
Delta-T
°C
Wind Press
QNH
hPa
Press
MSL
hPa
Rain
since 9 am
mm
Dir
 
Spd
km/h
Gust
km/h
Spd
kts
Gust
kts
05/11:30pm 14.8 7.4 4.9 51 4.6 NW 33 70 18 38 993.2 993.1 0.0
05/11:17pm 14.8 9.3 4.1 48 4.9 NW 22 59 12 32 993.5 993.4 0.0
05/11:00pm 14.0 9.2 4.9 54 4.3 NW 19 37 10 20 994.7 994.6 0.0
05/10:30pm 13.2 8.3 4.9 57 3.8 NW 20 46 11 25 995.6 995.5 0.0
05/10:00pm 13.0 9.6 4.1 54 4.1 N 11 19 6 10 996.7 996.6 0.0
05/09:30pm 12.7 7.8 3.9 55 4.0 N 19 32 10 17 997.1 997.0 0.0
05/09:00pm 12.3 7.1 3.4 54 4.0 N 20 37 11 20 997.7 997.6 0.0
05/08:30pm 12.1 6.9 3.4 55 3.9 NNW 20 35 11 19 998.5 998.4 0.0
05/08:00pm 12.3 6.2 2.5 51 4.3 NW 24 41 13 22 998.9 998.8 0.0
05/07:30pm 12.2 5.3 2.7 52 4.2 NNW 28 39 15 21 999.7 999.6 0.0
05/07:07pm 12.6 5.7 2.4 50 4.4 NNW 28 54 15 29 999.9 999.8 0.0
05/07:00pm 12.6 6.4 2.4 50 4.5 NNW 24 37 13 20 999.9 999.8 0.0
05/06:30pm 12.6 6.4 2.0 48 4.6 NNW 24 41 13 22 1000.8 1000.7 0.0
05/06:14pm 12.7 5.6 1.6 46 4.8 NNW 28 46 15 25 1001.0 1000.9 0.0
05/06:00pm 13.1 7.5 0.9 43 5.2 NW 20 43 11 23 1001.2 1001.1 0.0
05/05:30pm 13.8 8.0 -0.3 38 5.9 WNW 20 32 11 17 1001.9 1001.8 0.0
05/05:07pm 14.1 6.9 0.8 40 5.7 NW 28 46 15 25 1002.2 1002.1 0.0
05/05:00pm 14.4 7.6 0.7 39 5.9 WNW 26 43 14 23 1002.2 1002.1 0.0
05/04:35pm 15.1 9.1 -1.3 32 6.8 WNW 20 52 11 28 1002.2 1002.1 0.0
05/04:30pm 15.5 10.8 1.1 37 6.3 WNW 15 28 8 15 1002.5 1002.4 0.0
05/04:03pm 15.0 7.2 -0.8 34 6.6 W 30 56 16 30 1003.3 1003.3 0.0
05/04:00pm 14.9 8.7 -0.6 34 6.5 W 22 46 12 25 1003.4 1003.4 0.0
05/03:30pm 15.3 9.9 1.1 38 6.2 W 19 32 10 17 1004.2 1004.2 0.0
05/03:00pm 15.4 8.1 -0.1 34 6.6 W 28 44 15 24 1004.7 1004.7 0.0
05/02:49pm 16.1 9.1 -0.7 31 7.1 WNW 26 50 14 27 1004.5 1004.5 0.0
05/02:30pm 15.9 9.4 0.4 35 6.7 W 24 43 13 23 1005.0 1005.0 0.0
05/02:23pm 15.1 8.2 0.1 36 6.4 WSW 26 43 14 23 1005.2 1005.2 0.0
05/02:00pm 15.0 5.8 -1.5 32 6.8 WSW 37 65 20 35 1005.3 1005.3 0.0
05/01:30pm 14.8 5.8 0.3 37 6.2 W 37 59 20 32 1005.7 1005.7 0.0
05/01:12pm 14.1 6.5 0.8 40 5.7 W 30 50 16 27 1006.0 1006.0 0.0
05/01:00pm 14.1 7.7 3.3 48 4.9 WSW 26 43 14 23 1006.3 1006.3 0.0
05/12:30pm 14.3 6.6 0.1 38 6.0 WSW 30 63 16 34 1006.0 1006.0 0.0
05/12:00pm 14.3 5.3 -0.2 37 6.1 SW 37 72 20 39 1006.3 1006.3 0.0
05/11:54am 13.6 4.8 -1.0 36 6.0 SW 35 72 19 39 1006.1 1006.1 0.0
05/11:35am 13.4 6.2 1.0 43 5.3 SW 28 50 15 27 1006.2 1006.2 0.0
05/11:30am 13.2 6.8 1.0 43 5.2 WSW 24 50 13 27 1006.2 1006.2 0.0
05/11:00am 12.6 3.8 -0.9 39 5.5 SW 35 59 19 32 1006.0 1006.0 0.0
05/10:39am 11.8 1.4 -1.5 39 5.3 SW 43 76 23 41 1005.9 1005.9 0.0
05/10:30am 12.0 4.8 0.8 46 4.7 SW 28 48 15 26 1006.1 1006.1 0.0
05/10:01am 11.1 1.7 -0.2 45 4.6 SW 39 63 21 34 1005.9 1005.9 0.0
05/10:00am 11.2 2.2 0.0 46 4.6 SW 37 54 20 29 1005.9 1005.9 0.0
05/09:32am 10.7 2.5 0.2 48 4.3 SW 33 52 18 28 1005.3 1005.3 0.0
05/09:30am 10.8 2.2 0.3 48 4.3 WSW 35 52 19 28 1005.2 1005.2 0.0
05/09:27am 10.7 3.4 -0.1 47 4.4 WSW 28 52 15 28 1005.3 1005.3 0.0
05/09:00am 9.3 3.6 0.7 55 3.5 SW 20 35 11 19 1005.2 1005.2 2.2
05/08:48am 10.0 3.3 1.4 55 3.6 WSW 26 46 14 25 1005.2 1005.2 2.2
05/08:30am 9.6 4.3 1.7 58 3.3 SW 19 30 10 16 1004.6 1004.6 2.2
05/08:00am 8.4 0.1 1.9 63 2.7 SW 35 54 19 29 1003.8 1003.8 2.2
05/07:31am 8.7 1.8 2.3 64 2.7 SW 28 46 15 25 1002.8 1002.7 2.2
05/07:30am 8.7 1.7 2.0 63 2.8 SW 28 44 15 24 1002.7 1002.6 2.2
05/07:00am 7.9 2.8 3.2 72 2.0 SW 19 35 10 19 1001.8 1001.7 2.2
05/06:32am 7.6 0.1 3.7 76 1.7 SW 32 61 17 33 1001.0 1000.9 2.0
05/06:30am 7.6 0.6 3.9 77 1.6 SW 30 46 16 25 1001.1 1001.0 2.0
05/06:04am 8.7 1.9 2.9 67 2.5 SW 28 50 15 27 1000.7 1000.6 1.2
05/06:00am 8.9 2.7 2.0 62 2.9 SW 24 39 13 21 1000.4 1000.4 1.0
05/05:30am 8.4 3.2 3.6 72 2.1 WSW 20 37 11 20 999.6 999.5 1.0
05/05:00am 9.6 6.4 2.9 63 2.9 WNW 9 19 5 10 999.4 999.3 0.8
05/04:30am 9.0 4.4 3.8 70 2.3 WSW 17 28 9 15 998.8 998.7 0.8
05/04:00am 9.2 5.1 4.5 72 2.1 SSW 15 26 8 14 998.3 998.2 0.8
05/03:30am 10.7 6.8 3.2 60 3.3 SSW 13 33 7 18 997.9 997.8 0.6
05/03:00am 11.2 7.6 3.0 57 3.6 S 11 17 6 9 997.6 997.5 0.6
05/02:30am 11.5 8.6 2.6 54 3.9 WNW 7 15 4 8 997.0 996.9 0.6
05/02:00am 11.9 8.6 2.3 52 4.2 SSW 9 22 5 12 996.7 996.6 0.6
05/01:30am 11.9 8.5 4.2 59 3.5 SW 11 24 6 13 997.2 997.1 0.6
05/01:00am 12.3 7.9 4.7 60 3.5 WSW 17 37 9 20 996.9 996.8 0.6
05/12:30am 13.0 7.3 4.8 57 3.8 W 24 35 13 19 996.3 996.2 0.6
05/12:00am 13.0 7.7 6.8 66 3.0 WNW 24 43 13 23 996.5 996.4 0.4
 
Date/Time
EDT
Temp
°C
App
Temp
°C
Dew
Point
Rel
Hum
%
Delta-T
°C
Wind Press
QNH
hPa
Press
MSL
hPa
Rain
since 9 am
mm
Dir
 
Spd
km/h
Gust
km/h
Spd
kts
Gust
kts
04/11:46pm 13.4 7.3 6.8 64 3.2 WNW 28 46 15 25 996.0 995.9 0.4
04/11:30pm 14.4 8.3 4.9 53 4.4 WNW 26 43 14 23 995.7 995.6 0.2
04/11:06pm 14.8 8.3 4.6 50 4.8 WNW 28 46 15 25 996.0 995.9 0.2
04/11:00pm 14.8 9.1 4.9 51 4.7 WNW 24 41 13 22 996.3 996.2 0.2
04/10:45pm 14.4 8.3 6.6 59 3.8 NW 28 59 15 32 996.2 996.1 0.2
04/10:30pm 15.4 10.3 5.9 53 4.6 NW 22 33 12 18 996.6 996.5 0.0
04/10:07pm 15.3 8.7 6.1 54 4.4 NW 30 48 16 26 996.7 996.6 0.0
04/10:00pm 15.5 8.5 5.8 52 4.7 NW 32 48 17 26 996.6 996.5 0.0
04/09:30pm 15.1 9.1 7.0 58 4.0 NW 28 44 15 24 996.7 996.6 0.0
04/09:00pm 14.6 10.4 8.3 66 3.2 NW 20 33 11 18 997.2 997.1 0.0
04/08:30pm 14.7 10.7 9.1 69 2.9 NW 20 37 11 20 997.3 997.2 0.0
04/08:01pm 16.0 9.7 8.8 62 3.7 NW 32 50 17 27 997.5 997.4 0.0
04/08:00pm 16.4 10.3 8.4 59 4.1 NW 30 46 16 25 997.6 997.5 0.0
04/07:50pm 17.4 10.9 6.6 49 5.3 NW 30 48 16 26 997.2 997.1 0.0
04/07:30pm 17.6 12.2 6.3 47 5.6 NW 24 37 13 20 997.1 997.0 0.0
04/07:00pm 17.7 11.6 6.5 48 5.6 NW 28 46 15 25 997.5 997.4 0.0
04/06:30pm 18.4 12.1 5.9 44 6.1 NW 28 50 15 27 997.9 997.8 0.0
04/06:24pm 19.1 12.8 5.6 41 6.6 NW 28 50 15 27 998.0 997.9 0.0
04/06:00pm 19.5 12.8 5.6 40 6.9 WNW 30 41 16 22 998.2 998.1 0.0
04/05:30pm 20.6 13.0 4.1 33 8.0 NW 33 52 18 28 998.1 998.0 0.0
04/05:00pm 20.4 10.8 3.5 32 8.1 NW 43 80 23 43 998.0 997.9 0.0
04/04:55pm 20.4 10.9 3.8 33 7.9 NW 43 80 23 43 997.9 997.8 0.0
04/04:30pm 20.8 13.6 5.9 37 7.5 NW 33 59 18 32 998.8 998.7 0.0
04/04:00pm 21.5 14.4 5.6 35 8.0 NW 32 52 17 28 999.2 999.1 0.0
04/03:30pm 21.5 14.0 4.4 32 8.3 NW 33 61 18 33 999.6 999.5 0.0
04/03:00pm 22.1 14.7 5.1 33 8.5 NW 33 63 18 34 1000.0 999.9 0.0
04/02:30pm 21.7 13.7 5.6 35 8.1 NW 37 65 20 35 1000.1 1000.0 0.0
04/02:09pm 22.3 15.2 5.4 33 8.5 WNW 32 78 17 42 1000.0 999.9 0.0
04/02:00pm 21.8 14.2 6.0 35 8.0 WNW 35 70 19 38 1000.0 999.9 0.0
04/01:57pm 22.1 14.2 6.2 35 8.1 WNW 37 70 20 38 1000.0 999.9 0.0
04/01:42pm 21.7 16.0 6.7 37 7.7 NW 26 63 14 34 999.8 999.7 0.0
04/01:30pm 21.8 15.2 7.7 40 7.3 WNW 32 50 17 27 1000.2 1000.1 0.0
04/01:00pm 20.9 13.5 6.6 39 7.3 WNW 35 65 19 35 1000.6 1000.5 0.0
04/12:30pm 22.3 14.7 7.4 38 7.7 NW 37 63 20 34 1000.8 1000.7 0.0
04/12:00pm 21.5 13.8 6.9 38 7.5 NW 37 63 20 34 1001.2 1001.1 0.0
04/11:30am 20.8 14.3 6.7 40 7.2 NW 30 48 16 26 1001.4 1001.3 0.0
04/11:00am 20.6 14.2 6.9 41 7.0 NW 30 52 16 28 1001.8 1001.7 0.0
04/10:30am 19.6 12.1 6.5 42 6.6 NW 35 57 19 31 1001.8 1001.7 0.0
04/10:00am 18.7 11.5 6.0 43 6.3 NW 33 54 18 29 1001.8 1001.7 0.0
04/09:30am 17.3 11.5 6.4 48 5.4 NNW 26 48 14 26 1002.2 1002.1 0.0
04/09:00am 15.9 11.1 7.3 56 4.3 NW 22 39 12 21 1002.9 1002.8 0.0
04/08:30am 15.4 10.1 6.9 57 4.2 NNW 24 41 13 22 1003.2 1003.2 0.0
04/08:00am 15.0 10.1 6.9 58 4.0 NW 22 37 12 20 1003.5 1003.5 0.0
04/07:30am 14.4 10.1 7.1 61 3.6 NW 19 30 10 16 1003.5 1003.5 0.0
04/07:00am 14.1 8.5 7.0 62 3.5 NW 26 43 14 23 1003.6 1003.6 0.0
04/06:30am 14.5 9.4 6.0 56 4.1 NW 22 37 12 20 1003.7 1003.7 0.0
04/06:00am 14.7 9.9 5.5 54 4.4 NNW 20 33 11 18 1003.7 1003.7 0.0
04/05:30am 14.6 9.9 5.3 53 4.4 NNW 19 32 10 17 1004.0 1004.0 0.0
04/05:00am 14.6 9.4 5.3 53 4.4 NNW 22 41 12 22 1004.4 1004.4 0.0
04/04:30am 14.7 9.8 4.9 52 4.6 NNW 20 33 11 18 1004.7 1004.7 0.0
04/04:00am 14.6 9.3 4.8 52 4.6 NNW 22 33 12 18 1004.9 1004.9 0.0
04/03:30am 14.5 9.5 4.4 50 4.7 NNW 20 32 11 17 1005.3 1005.3 0.0
04/03:00am 14.3 9.4 4.1 50 4.7 NW 19 37 10 20 1005.8 1005.8 0.0
04/02:30am 14.2 10.4 4.0 50 4.7 NNW 13 22 7 12 1006.6 1006.6 0.0
04/02:00am 13.9 10.9 4.1 51 4.5 NNW 9 17 5 9 1007.3 1007.3 0.0
04/01:30am 13.7 9.8 3.6 50 4.6 NW 13 20 7 11 1007.7 1007.7 0.0
04/01:00am 13.3 9.3 3.0 49 4.6 SW 13 19 7 10 1008.3 1008.3 0.0
04/12:30am 13.6 9.4 1.9 45 5.1 W 13 24 7 13 1008.5 1008.5 0.0
04/12:00am 13.8 8.5 1.9 44 5.2 WNW 19 28 10 15 1008.9 1008.9 0.0
 
Date/Time
EDT
Temp
°C
App
Temp
°C
Dew
Point
Rel
Hum
%
Delta-T
°C
Wind Press
QNH
hPa
Press
MSL
hPa
Rain
since 9 am
mm
Dir
 
Spd
km/h
Gust
km/h
Spd
kts
Gust
kts
03/11:30pm 13.9 8.6 2.1 45 5.2 NW 19 30 10 16 1009.5 1009.5 0.0
03/11:14pm 14.4 7.3 1.3 41 5.7 NW 28 50 15 27 1009.5 1009.5 0.0
03/11:00pm 14.1 9.5 1.7 43 5.4 NW 15 30 8 16 1010.0 1010.0 0.0
03/10:30pm 13.6 11.1 4.0 52 4.4 WNW 6 13 3 7 1010.4 1010.3 0.0
03/10:00pm 13.3 10.7 5.9 61 3.5 SW 9 19 5 10 1010.6 1010.5 0.0
03/09:30pm 13.5 11.0 6.7 63 3.3 SW 9 13 5 7 1010.6 1010.5 0.0
03/09:00pm 14.0 11.6 7.0 62 3.4 SW 9 15 5 8 1010.6 1010.5 0.0
03/08:30pm 14.3 10.7 6.9 61 3.6 SW 15 20 8 11 1010.6 1010.5 0.0
03/08:00pm 14.4 10.4 6.8 60 3.7 SW 17 26 9 14 1010.5 1010.4 0.0
03/07:30pm 15.0 11.1 7.1 59 3.9 SW 17 28 9 15 1010.5 1010.4 0.0
03/07:00pm 16.0 12.1 7.1 55 4.4 SSW 17 24 9 13 1010.8 1010.7 0.0
03/06:30pm 16.3 11.3 6.3 51 4.9 SSE 22 32 12 17 1010.9 1010.8 0.0
03/06:00pm 17.0 11.3 6.7 50 5.1 SE 26 33 14 18 1010.8 1010.7 0.0
03/05:30pm 21.0 15.5 0.3 25 9.3 WNW 19 30 10 16 1010.6 1010.5 0.0
03/05:00pm 21.2 16.0 0.4 25 9.4 WNW 17 30 9 16 1010.6 1010.5 0.0
03/04:30pm 21.5 15.5 1.3 26 9.3 WNW 22 33 12 18 1011.0 1010.9 0.0
03/04:00pm 21.1 15.4 0.5 25 9.3 NW 20 32 11 17 1011.2 1011.1 0.0
03/03:30pm 21.2 15.2 1.1 26 9.2 NW 22 33 12 18 1011.6 1011.5 0.0
03/03:00pm 20.7 15.3 1.2 27 8.9 WNW 19 35 10 19 1012.0 1011.9 0.0
03/02:30pm 20.2 14.6 1.0 27 8.7 NW 20 33 11 18 1012.5 1012.4 0.0
03/02:00pm 19.5 13.8 0.4 27 8.5 NW 20 33 11 18 1012.8 1012.7 0.0
03/01:30pm 19.6 14.6 1.3 29 8.3 NW 17 28 9 15 1013.2 1013.1 0.0
03/01:00pm 18.7 12.2 0.3 29 8.1 NW 24 37 13 20 1013.5 1013.4 0.0
03/12:30pm 20.5 14.7 2.5 30 8.4 NW 22 32 12 17 1013.9 1013.8 0.0
03/12:00pm 19.5 13.8 0.4 27 8.5 NW 20 33 11 18 1014.2 1014.1 0.0
03/11:30am 18.7 14.8 1.0 30 7.9 W 11 19 6 10 1014.5 1014.4 0.0
03/11:00am 18.2 12.1 0.5 30 7.8 NNW 22 39 12 21 1014.6 1014.5 0.0
03/10:30am 18.3 12.9 2.7 35 7.2 NW 20 30 11 16 1014.5 1014.4 0.0
03/10:00am 16.8 13.5 4.8 45 5.7 W 11 20 6 11 1014.5 1014.4 0.0
03/09:30am 17.2 14.3 6.5 49 5.3 SW 11 22 6 12 1014.3 1014.2 0.0
03/09:00am 15.6 11.6 6.6 55 4.4 SSW 17 24 9 13 1014.3 1014.2 0.0
03/08:30am 15.2 12.9 7.3 59 3.9 NW 9 13 5 7 1014.1 1014.0 0.0
03/08:00am 14.5 12.9 8.6 67 3.0 SW 7 9 4 5 1013.9 1013.8 0.0
03/07:30am 13.0 11.1 9.0 77 2.0 SW 9 13 5 7 1013.7 1013.6 0.0
03/07:00am 12.9 10.6 8.9 76 2.0 WSW 11 17 6 9 1013.2 1013.1 0.0
03/06:30am 13.3 10.6 8.9 74 2.2 SW 13 24 7 13 1012.7 1012.6 0.0
03/06:00am 13.5 11.2 9.0 74 2.3 SW 11 20 6 11 1012.1 1012.0 0.0

Other Formats:

Comma delimited format used in spreadsheet applications
http://www.bom.gov.au/fwo/IDT60801/IDT60801.94970.axf

JavaScript Object Notation format (JSON) in row-major order
http://www.bom.gov.au/fwo/IDT60801/IDT60801.94970.json